sensor_id;sensor_type;location;lat;lon;timestamp;temperature;humidity
7476;DHT22;3779;49.216;8.650;2022-12-10T00:02:27;18.20;33.90
7476;DHT22;3779;49.216;8.650;2022-12-10T00:05:15;18.20;34.30
7476;DHT22;3779;49.216;8.650;2022-12-10T00:08:01;18.20;34.10
7476;DHT22;3779;49.216;8.650;2022-12-10T00:10:47;18.20;34.30
7476;DHT22;3779;49.216;8.650;2022-12-10T00:13:35;18.30;34.10
7476;DHT22;3779;49.216;8.650;2022-12-10T00:16:24;18.20;33.90
7476;DHT22;3779;49.216;8.650;2022-12-10T00:19:10;18.20;34.10
7476;DHT22;3779;49.216;8.650;2022-12-10T00:21:56;18.20;34.20
7476;DHT22;3779;49.216;8.650;2022-12-10T00:24:42;18.20;33.70
7476;DHT22;3779;49.216;8.650;2022-12-10T00:27:28;18.20;33.70
7476;DHT22;3779;49.216;8.650;2022-12-10T00:30:14;18.20;34.10
7476;DHT22;3779;49.216;8.650;2022-12-10T00:33:00;18.20;33.90
7476;DHT22;3779;49.216;8.650;2022-12-10T00:35:46;18.20;34.10
7476;DHT22;3779;49.216;8.650;2022-12-10T00:38:32;18.20;34.10
7476;DHT22;3779;49.216;8.650;2022-12-10T00:41:18;18.30;35.30
7476;DHT22;3779;49.216;8.650;2022-12-10T00:44:04;18.30;34.40
7476;DHT22;3779;49.216;8.650;2022-12-10T00:46:51;18.40;34.30
7476;DHT22;3779;49.216;8.650;2022-12-10T00:49:37;18.30;33.90
7476;DHT22;3779;49.216;8.650;2022-12-10T00:52:23;18.30;33.60
7476;DHT22;3779;49.216;8.650;2022-12-10T00:55:09;18.30;34.50
7476;DHT22;3779;49.216;8.650;2022-12-10T00:57:55;18.30;34.10
7476;DHT22;3779;49.216;8.650;2022-12-10T01:00:41;18.30;33.70
7476;DHT22;3779;49.216;8.650;2022-12-10T01:03:27;18.20;33.60
7476;DHT22;3779;49.216;8.650;2022-12-10T01:06:25;18.20;33.80
7476;DHT22;3779;49.216;8.650;2022-12-10T01:09:13;18.30;34.10
7476;DHT22;3779;49.216;8.650;2022-12-10T01:12:02;18.20;33.80
7476;DHT22;3779;49.216;8.650;2022-12-10T01:14:48;18.20;33.60
7476;DHT22;3779;49.216;8.650;2022-12-10T01:17:35;18.20;33.70
7476;DHT22;3779;49.216;8.650;2022-12-10T01:20:21;18.20;33.70
7476;DHT22;3779;49.216;8.650;2022-12-10T01:23:07;18.10;33.70
7476;DHT22;3779;49.216;8.650;2022-12-10T01:25:53;18.20;33.40
7476;DHT22;3779;49.216;8.650;2022-12-10T01:28:40;18.10;33.60
7476;DHT22;3779;49.216;8.650;2022-12-10T01:31:32;18.10;33.70
7476;DHT22;3779;49.216;8.650;2022-12-10T01:34:18;18.10;34.00
7476;DHT22;3779;49.216;8.650;2022-12-10T01:37:04;18.10;33.60
7476;DHT22;3779;49.216;8.650;2022-12-10T01:39:51;18.10;34.10
7476;DHT22;3779;49.216;8.650;2022-12-10T01:42:38;18.10;34.00
7476;DHT22;3779;49.216;8.650;2022-12-10T01:45:27;18.10;33.50
7476;DHT22;3779;49.216;8.650;2022-12-10T01:48:13;18.10;33.40
7476;DHT22;3779;49.216;8.650;2022-12-10T01:50:59;18.10;33.70
7476;DHT22;3779;49.216;8.650;2022-12-10T01:53:46;18.10;34.00
7476;DHT22;3779;49.216;8.650;2022-12-10T01:56:36;18.10;33.90
7476;DHT22;3779;49.216;8.650;2022-12-10T01:59:22;18.10;34.30
7476;DHT22;3779;49.216;8.650;2022-12-10T02:05:12;18.10;34.10
7476;DHT22;3779;49.216;8.650;2022-12-10T02:11:16;18.10;34.00
7476;DHT22;3779;49.216;8.650;2022-12-10T02:14:25;18.10;34.60
7476;DHT22;3779;49.216;8.650;2022-12-10T02:17:19;18.10;34.50
7476;DHT22;3779;49.216;8.650;2022-12-10T02:23:02;18.10;34.60
7476;DHT22;3779;49.216;8.650;2022-12-10T02:26:25;18.10;33.70
7476;DHT22;3779;49.216;8.650;2022-12-10T02:29:20;18.00;34.60
7476;DHT22;3779;49.216;8.650;2022-12-10T02:32:17;18.00;34.90
7476;DHT22;3779;49.216;8.650;2022-12-10T02:35:09;18.10;34.80
7476;DHT22;3779;49.216;8.650;2022-12-10T02:38:11;18.10;33.90
7476;DHT22;3779;49.216;8.650;2022-12-10T02:41:04;18.10;34.10
7476;DHT22;3779;49.216;8.650;2022-12-10T02:43:52;18.10;33.70
7476;DHT22;3779;49.216;8.650;2022-12-10T02:46:41;18.10;34.00
7476;DHT22;3779;49.216;8.650;2022-12-10T02:49:30;18.10;33.70
7476;DHT22;3779;49.216;8.650;2022-12-10T02:52:19;18.00;34.30
7476;DHT22;3779;49.216;8.650;2022-12-10T02:55:13;18.00;34.00
7476;DHT22;3779;49.216;8.650;2022-12-10T03:04:36;18.00;34.60
7476;DHT22;3779;49.216;8.650;2022-12-10T03:07:36;18.00;34.00
7476;DHT22;3779;49.216;8.650;2022-12-10T03:10:34;18.00;33.70
7476;DHT22;3779;49.216;8.650;2022-12-10T03:13:27;18.00;34.00
7476;DHT22;3779;49.216;8.650;2022-12-10T03:16:15;18.00;33.90
7476;DHT22;3779;49.216;8.650;2022-12-10T03:19:10;18.00;34.10
7476;DHT22;3779;49.216;8.650;2022-12-10T03:21:56;18.00;34.30
7476;DHT22;3779;49.216;8.650;2022-12-10T03:24:44;18.00;34.00
7476;DHT22;3779;49.216;8.650;2022-12-10T03:27:30;18.00;33.60
7476;DHT22;3779;49.216;8.650;2022-12-10T03:30:17;18.00;33.70
7476;DHT22;3779;49.216;8.650;2022-12-10T03:33:04;18.00;33.70
7476;DHT22;3779;49.216;8.650;2022-12-10T03:35:50;18.00;34.00
7476;DHT22;3779;49.216;8.650;2022-12-10T03:38:37;18.00;33.90
7476;DHT22;3779;49.216;8.650;2022-12-10T03:41:23;18.00;33.90
7476;DHT22;3779;49.216;8.650;2022-12-10T03:44:09;18.00;34.50
7476;DHT22;3779;49.216;8.650;2022-12-10T03:46:56;18.00;33.90
7476;DHT22;3779;49.216;8.650;2022-12-10T03:49:42;18.00;33.80
7476;DHT22;3779;49.216;8.650;2022-12-10T03:52:28;18.00;33.70
7476;DHT22;3779;49.216;8.650;2022-12-10T03:55:14;18.00;34.30
7476;DHT22;3779;49.216;8.650;2022-12-10T03:58:00;18.10;34.80
7476;DHT22;3779;49.216;8.650;2022-12-10T04:00:46;18.10;33.90
7476;DHT22;3779;49.216;8.650;2022-12-10T04:03:35;18.10;33.30
7476;DHT22;3779;49.216;8.650;2022-12-10T04:06:21;18.00;33.60
7476;DHT22;3779;49.216;8.650;2022-12-10T04:09:10;18.00;33.40
7476;DHT22;3779;49.216;8.650;2022-12-10T04:11:57;18.00;33.60
7476;DHT22;3779;49.216;8.650;2022-12-10T04:14:43;18.00;33.80
7476;DHT22;3779;49.216;8.650;2022-12-10T04:17:48;18.10;33.70
7476;DHT22;3779;49.216;8.650;2022-12-10T04:20:34;18.10;33.90
7476;DHT22;3779;49.216;8.650;2022-12-10T04:23:39;18.10;34.30
7476;DHT22;3779;49.216;8.650;2022-12-10T04:26:43;18.10;33.70
7476;DHT22;3779;49.216;8.650;2022-12-10T04:29:39;18.10;33.30
7476;DHT22;3779;49.216;8.650;2022-12-10T04:32:27;18.10;33.60
7476;DHT22;3779;49.216;8.650;2022-12-10T04:35:13;18.00;33.50
7476;DHT22;3779;49.216;8.650;2022-12-10T04:37:59;18.00;33.60
7476;DHT22;3779;49.216;8.650;2022-12-10T04:40:45;18.00;33.30
7476;DHT22;3779;49.216;8.650;2022-12-10T04:43:31;18.10;33.80
7476;DHT22;3779;49.216;8.650;2022-12-10T04:46:17;18.10;33.90
7476;DHT22;3779;49.216;8.650;2022-12-10T04:49:04;18.10;33.30
7476;DHT22;3779;49.216;8.650;2022-12-10T04:51:50;18.10;33.70
7476;DHT22;3779;49.216;8.650;2022-12-10T04:54:38;18.10;33.70
7476;DHT22;3779;49.216;8.650;2022-12-10T04:57:24;18.10;33.70
7476;DHT22;3779;49.216;8.650;2022-12-10T05:00:11;18.10;33.10
7476;DHT22;3779;49.216;8.650;2022-12-10T05:02:57;18.10;33.10
7476;DHT22;3779;49.216;8.650;2022-12-10T05:05:43;18.10;33.30
7476;DHT22;3779;49.216;8.650;2022-12-10T05:08:29;18.00;33.40
7476;DHT22;3779;49.216;8.650;2022-12-10T05:11:20;18.00;33.30
7476;DHT22;3779;49.216;8.650;2022-12-10T05:14:06;18.00;33.70
7476;DHT22;3779;49.216;8.650;2022-12-10T05:16:53;18.10;34.30
7476;DHT22;3779;49.216;8.650;2022-12-10T05:19:39;18.10;33.90
7476;DHT22;3779;49.216;8.650;2022-12-10T05:22:25;18.00;32.90
7476;DHT22;3779;49.216;8.650;2022-12-10T05:25:30;18.00;33.10
7476;DHT22;3779;49.216;8.650;2022-12-10T05:28:16;18.00;32.80
7476;DHT22;3779;49.216;8.650;2022-12-10T05:31:02;18.00;33.30
7476;DHT22;3779;49.216;8.650;2022-12-10T05:33:49;18.00;33.20
7476;DHT22;3779;49.216;8.650;2022-12-10T05:36:34;18.00;33.10
7476;DHT22;3779;49.216;8.650;2022-12-10T05:39:20;18.00;33.20
7476;DHT22;3779;49.216;8.650;2022-12-10T05:42:06;18.00;33.10
7476;DHT22;3779;49.216;8.650;2022-12-10T05:44:52;18.00;33.10
7476;DHT22;3779;49.216;8.650;2022-12-10T05:47:38;17.90;33.00
7476;DHT22;3779;49.216;8.650;2022-12-10T05:50:24;18.00;33.00
7476;DHT22;3779;49.216;8.650;2022-12-10T05:53:11;18.00;33.30
7476;DHT22;3779;49.216;8.650;2022-12-10T05:56:04;18.00;33.00
7476;DHT22;3779;49.216;8.650;2022-12-10T05:58:53;18.00;33.30
7476;DHT22;3779;49.216;8.650;2022-12-10T06:01:39;18.00;33.20
7476;DHT22;3779;49.216;8.650;2022-12-10T06:04:25;18.00;33.10
7476;DHT22;3779;49.216;8.650;2022-12-10T06:07:11;18.00;33.10
7476;DHT22;3779;49.216;8.650;2022-12-10T06:09:57;18.00;32.70
7476;DHT22;3779;49.216;8.650;2022-12-10T06:12:43;17.90;32.70
7476;DHT22;3779;49.216;8.650;2022-12-10T06:15:29;17.90;32.80
7476;DHT22;3779;49.216;8.650;2022-12-10T06:18:15;17.90;33.20
7476;DHT22;3779;49.216;8.650;2022-12-10T06:21:09;17.90;32.60
7476;DHT22;3779;49.216;8.650;2022-12-10T06:23:56;17.90;33.10
7476;DHT22;3779;49.216;8.650;2022-12-10T06:26:42;17.90;32.50
7476;DHT22;3779;49.216;8.650;2022-12-10T06:29:28;17.90;32.80
7476;DHT22;3779;49.216;8.650;2022-12-10T06:32:13;17.90;33.00
7476;DHT22;3779;49.216;8.650;2022-12-10T06:34:59;17.90;32.80
7476;DHT22;3779;49.216;8.650;2022-12-10T06:37:45;17.90;33.10
7476;DHT22;3779;49.216;8.650;2022-12-10T06:40:31;17.90;32.80
7476;DHT22;3779;49.216;8.650;2022-12-10T06:43:17;17.90;33.10
7476;DHT22;3779;49.216;8.650;2022-12-10T06:46:08;17.90;32.90
7476;DHT22;3779;49.216;8.650;2022-12-10T06:48:53;17.90;33.10
7476;DHT22;3779;49.216;8.650;2022-12-10T06:51:39;17.90;32.90
7476;DHT22;3779;49.216;8.650;2022-12-10T06:54:25;17.90;33.50
7476;DHT22;3779;49.216;8.650;2022-12-10T06:57:11;18.00;34.10
7476;DHT22;3779;49.216;8.650;2022-12-10T06:59:57;18.00;33.30
7476;DHT22;3779;49.216;8.650;2022-12-10T07:02:43;18.00;32.80
7476;DHT22;3779;49.216;8.650;2022-12-10T07:05:29;18.00;33.10
7476;DHT22;3779;49.216;8.650;2022-12-10T07:08:15;18.00;32.50
7476;DHT22;3779;49.216;8.650;2022-12-10T07:11:07;18.00;32.50
7476;DHT22;3779;49.216;8.650;2022-12-10T07:13:54;17.90;33.00
7476;DHT22;3779;49.216;8.650;2022-12-10T07:16:39;17.90;33.10
7476;DHT22;3779;49.216;8.650;2022-12-10T07:19:26;18.00;33.70
7476;DHT22;3779;49.216;8.650;2022-12-10T07:22:12;18.00;32.90
7476;DHT22;3779;49.216;8.650;2022-12-10T07:24:58;18.00;32.80
7476;DHT22;3779;49.216;8.650;2022-12-10T07:27:43;18.00;32.90
7476;DHT22;3779;49.216;8.650;2022-12-10T07:30:29;18.00;32.90
7476;DHT22;3779;49.216;8.650;2022-12-10T07:33:15;18.00;33.00
7476;DHT22;3779;49.216;8.650;2022-12-10T07:36:05;18.10;33.40
7476;DHT22;3779;49.216;8.650;2022-12-10T07:38:52;18.10;32.70
7476;DHT22;3779;49.216;8.650;2022-12-10T07:41:38;18.00;32.80
7476;DHT22;3779;49.216;8.650;2022-12-10T07:44:25;18.10;33.30
7476;DHT22;3779;49.216;8.650;2022-12-10T07:47:11;18.10;33.10
7476;DHT22;3779;49.216;8.650;2022-12-10T07:49:57;18.20;33.20
7476;DHT22;3779;49.216;8.650;2022-12-10T07:52:43;18.20;33.40
7476;DHT22;3779;49.216;8.650;2022-12-10T07:55:29;18.20;32.50
7476;DHT22;3779;49.216;8.650;2022-12-10T07:58:15;18.10;32.30
7476;DHT22;3779;49.216;8.650;2022-12-10T08:01:16;18.10;33.20
7476;DHT22;3779;49.216;8.650;2022-12-10T08:04:02;18.20;35.00
7476;DHT22;3779;49.216;8.650;2022-12-10T08:06:48;18.30;33.30
7476;DHT22;3779;49.216;8.650;2022-12-10T08:09:34;18.30;32.50
7476;DHT22;3779;49.216;8.650;2022-12-10T08:12:20;18.30;33.50
7476;DHT22;3779;49.216;8.650;2022-12-10T08:15:06;18.30;32.80
7476;DHT22;3779;49.216;8.650;2022-12-10T08:17:52;18.30;32.80
7476;DHT22;3779;49.216;8.650;2022-12-10T08:20:38;18.30;33.40
7476;DHT22;3779;49.216;8.650;2022-12-10T08:23:24;18.40;34.10
7476;DHT22;3779;49.216;8.650;2022-12-10T08:26:13;18.40;32.90
7476;DHT22;3779;49.216;8.650;2022-12-10T08:28:59;18.40;33.50
7476;DHT22;3779;49.216;8.650;2022-12-10T08:31:46;18.40;32.60
7476;DHT22;3779;49.216;8.650;2022-12-10T08:34:32;18.40;33.70
7476;DHT22;3779;49.216;8.650;2022-12-10T08:37:17;18.40;31.60
7476;DHT22;3779;49.216;8.650;2022-12-10T08:40:04;18.40;33.60
7476;DHT22;3779;49.216;8.650;2022-12-10T08:42:51;18.50;33.20
7476;DHT22;3779;49.216;8.650;2022-12-10T08:45:37;18.40;32.60
7476;DHT22;3779;49.216;8.650;2022-12-10T08:48:23;18.50;35.60
7476;DHT22;3779;49.216;8.650;2022-12-10T08:51:13;18.50;33.40
7476;DHT22;3779;49.216;8.650;2022-12-10T08:54:00;18.60;33.60
7476;DHT22;3779;49.216;8.650;2022-12-10T08:56:46;18.50;31.80
7476;DHT22;3779;49.216;8.650;2022-12-10T08:59:32;18.40;33.20
7476;DHT22;3779;49.216;8.650;2022-12-10T09:02:17;18.40;32.70
7476;DHT22;3779;49.216;8.650;2022-12-10T09:05:05;18.40;32.30
7476;DHT22;3779;49.216;8.650;2022-12-10T09:07:51;18.40;33.70
7476;DHT22;3779;49.216;8.650;2022-12-10T09:10:38;18.40;32.40
7476;DHT22;3779;49.216;8.650;2022-12-10T09:13:25;18.30;32.20
7476;DHT22;3779;49.216;8.650;2022-12-10T09:16:11;18.20;31.90
7476;DHT22;3779;49.216;8.650;2022-12-10T09:18:58;18.20;31.50
7476;DHT22;3779;49.216;8.650;2022-12-10T09:21:44;18.10;32.60
7476;DHT22;3779;49.216;8.650;2022-12-10T09:24:30;18.20;32.40
7476;DHT22;3779;49.216;8.650;2022-12-10T09:27:16;18.10;31.60
7476;DHT22;3779;49.216;8.650;2022-12-10T09:30:04;18.10;32.10
7476;DHT22;3779;49.216;8.650;2022-12-10T09:32:50;18.10;32.10
7476;DHT22;3779;49.216;8.650;2022-12-10T09:35:40;18.10;31.90
7476;DHT22;3779;49.216;8.650;2022-12-10T09:38:26;18.00;31.30
7476;DHT22;3779;49.216;8.650;2022-12-10T09:47:36;18.00;32.40
7476;DHT22;3779;49.216;8.650;2022-12-10T09:50:38;18.00;32.20
7476;DHT22;3779;49.216;8.650;2022-12-10T09:53:30;18.00;32.30
7476;DHT22;3779;49.216;8.650;2022-12-10T09:56:23;18.00;32.10
7476;DHT22;3779;49.216;8.650;2022-12-10T09:59:23;18.10;32.60
7476;DHT22;3779;49.216;8.650;2022-12-10T10:02:25;18.20;33.60
7476;DHT22;3779;49.216;8.650;2022-12-10T10:05:23;18.20;32.70
7476;DHT22;3779;49.216;8.650;2022-12-10T10:11:03;18.20;31.80
7476;DHT22;3779;49.216;8.650;2022-12-10T10:13:57;18.10;31.50
7476;DHT22;3779;49.216;8.650;2022-12-10T10:16:50;18.00;32.50
7476;DHT22;3779;49.216;8.650;2022-12-10T10:19:38;18.00;32.00
7476;DHT22;3779;49.216;8.650;2022-12-10T10:22:25;18.00;31.50
7476;DHT22;3779;49.216;8.650;2022-12-10T10:25:17;18.00;31.90
7476;DHT22;3779;49.216;8.650;2022-12-10T10:28:04;18.00;31.90
7476;DHT22;3779;49.216;8.650;2022-12-10T10:30:52;17.90;31.80
7476;DHT22;3779;49.216;8.650;2022-12-10T10:34:00;18.00;34.20
7476;DHT22;3779;49.216;8.650;2022-12-10T10:36:47;18.20;33.90
7476;DHT22;3779;49.216;8.650;2022-12-10T10:39:35;18.20;31.70
7476;DHT22;3779;49.216;8.650;2022-12-10T10:42:42;18.20;38.90
7476;DHT22;3779;49.216;8.650;2022-12-10T10:45:42;18.40;35.70
7476;DHT22;3779;49.216;8.650;2022-12-10T10:48:33;18.40;33.50
7476;DHT22;3779;49.216;8.650;2022-12-10T10:51:22;18.30;32.20
7476;DHT22;3779;49.216;8.650;2022-12-10T10:54:11;18.30;40.40
7476;DHT22;3779;49.216;8.650;2022-12-10T10:56:57;18.50;35.10
7476;DHT22;3779;49.216;8.650;2022-12-10T10:59:46;18.50;32.70
7476;DHT22;3779;49.216;8.650;2022-12-10T11:02:36;18.60;36.10
7476;DHT22;3779;49.216;8.650;2022-12-10T11:05:29;18.70;37.40
7476;DHT22;3779;49.216;8.650;2022-12-10T11:08:18;18.70;33.80
7476;DHT22;3779;49.216;8.650;2022-12-10T11:11:20;18.70;37.00
7476;DHT22;3779;49.216;8.650;2022-12-10T11:17:31;18.90;34.40
7476;DHT22;3779;49.216;8.650;2022-12-10T11:20:23;18.80;36.80
7476;DHT22;3779;49.216;8.650;2022-12-10T11:23:12;18.90;36.40
7476;DHT22;3779;49.216;8.650;2022-12-10T11:32:14;18.80;33.80
7476;DHT22;3779;49.216;8.650;2022-12-10T11:35:20;18.80;36.90
7476;DHT22;3779;49.216;8.650;2022-12-10T11:38:45;18.80;41.90
7476;DHT22;3779;49.216;8.650;2022-12-10T11:41:41;18.90;38.30
7476;DHT22;3779;49.216;8.650;2022-12-10T11:54:14;18.80;36.30
7476;DHT22;3779;49.216;8.650;2022-12-10T12:00:26;18.90;37.40
7476;DHT22;3779;49.216;8.650;2022-12-10T12:06:20;18.90;43.30
7476;DHT22;3779;49.216;8.650;2022-12-10T12:09:28;19.10;39.40
7476;DHT22;3779;49.216;8.650;2022-12-10T12:21:16;19.00;37.00
7476;DHT22;3779;49.216;8.650;2022-12-10T12:24:07;19.00;34.20
7476;DHT22;3779;49.216;8.650;2022-12-10T12:30:06;19.00;39.30
7476;DHT22;3779;49.216;8.650;2022-12-10T12:33:14;19.10;35.40
7476;DHT22;3779;49.216;8.650;2022-12-10T12:36:22;19.00;37.20
7476;DHT22;3779;49.216;8.650;2022-12-10T12:42:55;19.00;36.50
7476;DHT22;3779;49.216;8.650;2022-12-10T12:45:45;18.90;34.40
7476;DHT22;3779;49.216;8.650;2022-12-10T12:51:33;18.90;37.80
7476;DHT22;3779;49.216;8.650;2022-12-10T12:54:22;18.90;33.80
7476;DHT22;3779;49.216;8.650;2022-12-10T12:57:25;18.80;35.60
7476;DHT22;3779;49.216;8.650;2022-12-10T13:00:17;18.80;36.50
7476;DHT22;3779;49.216;8.650;2022-12-10T13:03:23;18.90;34.70
7476;DHT22;3779;49.216;8.650;2022-12-10T13:06:13;18.90;34.10
7476;DHT22;3779;49.216;8.650;2022-12-10T13:17:38;18.70;32.70
7476;DHT22;3779;49.216;8.650;2022-12-10T13:26:27;18.80;33.50
7476;DHT22;3779;49.216;8.650;2022-12-10T13:29:26;18.80;34.00
7476;DHT22;3779;49.216;8.650;2022-12-10T13:35:26;18.60;32.50
7476;DHT22;3779;49.216;8.650;2022-12-10T13:38:22;18.50;34.50
7476;DHT22;3779;49.216;8.650;2022-12-10T13:41:08;18.60;35.80
7476;DHT22;3779;49.216;8.650;2022-12-10T13:44:47;18.70;38.40
7476;DHT22;3779;49.216;8.650;2022-12-10T13:53:34;18.80;34.40
7476;DHT22;3779;49.216;8.650;2022-12-10T13:56:28;18.80;32.90
7476;DHT22;3779;49.216;8.650;2022-12-10T14:06:21;18.70;31.90
7476;DHT22;3779;49.216;8.650;2022-12-10T14:09:18;18.60;33.80
7476;DHT22;3779;49.216;8.650;2022-12-10T14:12:14;18.50;32.10
7476;DHT22;3779;49.216;8.650;2022-12-10T14:15:08;18.40;31.80
7476;DHT22;3779;49.216;8.650;2022-12-10T14:18:11;18.40;32.00
7476;DHT22;3779;49.216;8.650;2022-12-10T14:20:58;18.40;31.90
7476;DHT22;3779;49.216;8.650;2022-12-10T14:23:49;18.30;31.80
7476;DHT22;3779;49.216;8.650;2022-12-10T14:26:36;18.30;31.40
7476;DHT22;3779;49.216;8.650;2022-12-10T14:29:22;18.30;32.40
7476;DHT22;3779;49.216;8.650;2022-12-10T14:32:14;18.30;31.50
7476;DHT22;3779;49.216;8.650;2022-12-10T14:35:03;18.30;32.10
7476;DHT22;3779;49.216;8.650;2022-12-10T14:37:51;18.40;34.80
7476;DHT22;3779;49.216;8.650;2022-12-10T14:40:40;18.40;32.80
7476;DHT22;3779;49.216;8.650;2022-12-10T14:43:36;18.40;31.30
7476;DHT22;3779;49.216;8.650;2022-12-10T14:46:25;18.40;32.60
7476;DHT22;3779;49.216;8.650;2022-12-10T14:49:20;18.40;32.00
7476;DHT22;3779;49.216;8.650;2022-12-10T14:52:24;18.40;33.60
7476;DHT22;3779;49.216;8.650;2022-12-10T14:55:13;18.50;34.40
7476;DHT22;3779;49.216;8.650;2022-12-10T14:58:04;18.60;32.80
7476;DHT22;3779;49.216;8.650;2022-12-10T15:00:51;18.60;33.30
7476;DHT22;3779;49.216;8.650;2022-12-10T15:03:43;18.70;33.10
7476;DHT22;3779;49.216;8.650;2022-12-10T15:06:36;18.70;32.40
7476;DHT22;3779;49.216;8.650;2022-12-10T15:09:25;18.60;33.40
7476;DHT22;3779;49.216;8.650;2022-12-10T15:12:45;18.70;32.60
7476;DHT22;3779;49.216;8.650;2022-12-10T15:15:33;18.60;32.50
7476;DHT22;3779;49.216;8.650;2022-12-10T15:18:33;18.50;32.30
7476;DHT22;3779;49.216;8.650;2022-12-10T15:21:21;18.60;34.20
7476;DHT22;3779;49.216;8.650;2022-12-10T15:24:20;18.70;32.40
7476;DHT22;3779;49.216;8.650;2022-12-10T15:27:18;18.60;32.00
7476;DHT22;3779;49.216;8.650;2022-12-10T15:30:32;18.50;32.10
7476;DHT22;3779;49.216;8.650;2022-12-10T15:33:27;18.50;33.70
7476;DHT22;3779;49.216;8.650;2022-12-10T15:36:22;18.60;32.20
7476;DHT22;3779;49.216;8.650;2022-12-10T15:39:16;18.50;31.90
7476;DHT22;3779;49.216;8.650;2022-12-10T15:42:07;18.40;32.00
7476;DHT22;3779;49.216;8.650;2022-12-10T15:45:03;18.40;31.80
7476;DHT22;3779;49.216;8.650;2022-12-10T15:47:50;18.50;32.90
7476;DHT22;3779;49.216;8.650;2022-12-10T15:50:37;18.40;31.60
7476;DHT22;3779;49.216;8.650;2022-12-10T15:53:28;18.40;31.30
7476;DHT22;3779;49.216;8.650;2022-12-10T15:56:19;18.30;31.90
7476;DHT22;3779;49.216;8.650;2022-12-10T15:59:05;18.30;31.80
7476;DHT22;3779;49.216;8.650;2022-12-10T16:01:51;18.20;31.20
7476;DHT22;3779;49.216;8.650;2022-12-10T16:04:37;18.20;31.50
7476;DHT22;3779;49.216;8.650;2022-12-10T16:07:23;18.30;32.00
7476;DHT22;3779;49.216;8.650;2022-12-10T16:10:11;18.30;31.50
7476;DHT22;3779;49.216;8.650;2022-12-10T16:13:05;18.30;31.70
7476;DHT22;3779;49.216;8.650;2022-12-10T16:16:03;18.30;32.10
7476;DHT22;3779;49.216;8.650;2022-12-10T16:18:49;18.30;32.10
7476;DHT22;3779;49.216;8.650;2022-12-10T16:21:35;18.30;31.10
7476;DHT22;3779;49.216;8.650;2022-12-10T16:24:22;18.30;33.90
7476;DHT22;3779;49.216;8.650;2022-12-10T16:27:14;18.40;32.10
7476;DHT22;3779;49.216;8.650;2022-12-10T16:30:01;18.40;31.90
7476;DHT22;3779;49.216;8.650;2022-12-10T16:32:48;18.30;30.90
7476;DHT22;3779;49.216;8.650;2022-12-10T16:35:34;18.30;30.90
7476;DHT22;3779;49.216;8.650;2022-12-10T16:38:20;18.30;32.50
7476;DHT22;3779;49.216;8.650;2022-12-10T16:41:18;18.20;30.90
7476;DHT22;3779;49.216;8.650;2022-12-10T16:44:04;18.20;31.60
7476;DHT22;3779;49.216;8.650;2022-12-10T16:46:51;18.20;30.90
7476;DHT22;3779;49.216;8.650;2022-12-10T16:49:37;18.20;31.50
7476;DHT22;3779;49.216;8.650;2022-12-10T16:52:22;18.20;31.40
7476;DHT22;3779;49.216;8.650;2022-12-10T16:55:20;18.30;32.50
7476;DHT22;3779;49.216;8.650;2022-12-10T16:58:09;18.20;31.40
7476;DHT22;3779;49.216;8.650;2022-12-10T17:00:55;18.10;30.70
7476;DHT22;3779;49.216;8.650;2022-12-10T17:03:41;18.00;30.30
7476;DHT22;3779;49.216;8.650;2022-12-10T17:06:27;18.00;30.30
7476;DHT22;3779;49.216;8.650;2022-12-10T17:09:14;17.90;30.20
7476;DHT22;3779;49.216;8.650;2022-12-10T17:12:00;17.90;30.60
7476;DHT22;3779;49.216;8.650;2022-12-10T17:14:46;17.90;30.30
7476;DHT22;3779;49.216;8.650;2022-12-10T17:17:33;17.90;31.10
7476;DHT22;3779;49.216;8.650;2022-12-10T17:20:19;17.90;30.40
7476;DHT22;3779;49.216;8.650;2022-12-10T17:23:07;17.90;30.40
7476;DHT22;3779;49.216;8.650;2022-12-10T17:25:53;17.80;30.00
7476;DHT22;3779;49.216;8.650;2022-12-10T17:28:39;17.80;30.60
7476;DHT22;3779;49.216;8.650;2022-12-10T17:31:25;17.80;30.30
7476;DHT22;3779;49.216;8.650;2022-12-10T17:34:12;17.80;30.40
7476;DHT22;3779;49.216;8.650;2022-12-10T17:36:58;17.80;30.30
7476;DHT22;3779;49.216;8.650;2022-12-10T17:39:44;17.80;30.60
7476;DHT22;3779;49.216;8.650;2022-12-10T17:42:30;17.70;30.40
7476;DHT22;3779;49.216;8.650;2022-12-10T17:45:18;17.70;30.20
7476;DHT22;3779;49.216;8.650;2022-12-10T17:48:05;17.70;30.00
7476;DHT22;3779;49.216;8.650;2022-12-10T17:50:51;17.80;30.00
7476;DHT22;3779;49.216;8.650;2022-12-10T17:53:37;17.70;29.80
7476;DHT22;3779;49.216;8.650;2022-12-10T17:56:26;17.70;29.80
7476;DHT22;3779;49.216;8.650;2022-12-10T17:59:15;17.70;29.90
7476;DHT22;3779;49.216;8.650;2022-12-10T18:02:01;17.70;29.70
7476;DHT22;3779;49.216;8.650;2022-12-10T18:04:47;17.60;29.50
7476;DHT22;3779;49.216;8.650;2022-12-10T18:07:33;17.60;29.30
7476;DHT22;3779;49.216;8.650;2022-12-10T18:10:22;17.60;29.20
7476;DHT22;3779;49.216;8.650;2022-12-10T18:13:08;17.60;29.30
7476;DHT22;3779;49.216;8.650;2022-12-10T18:15:54;17.50;29.20
7476;DHT22;3779;49.216;8.650;2022-12-10T18:18:40;17.50;29.00
7476;DHT22;3779;49.216;8.650;2022-12-10T18:21:27;17.50;29.10
7476;DHT22;3779;49.216;8.650;2022-12-10T18:24:13;17.50;29.10
7476;DHT22;3779;49.216;8.650;2022-12-10T18:27:00;17.50;29.00
7476;DHT22;3779;49.216;8.650;2022-12-10T18:29:47;17.50;29.50
7476;DHT22;3779;49.216;8.650;2022-12-10T18:32:33;17.50;29.20
7476;DHT22;3779;49.216;8.650;2022-12-10T18:35:19;17.50;29.20
7476;DHT22;3779;49.216;8.650;2022-12-10T18:38:05;17.50;29.50
7476;DHT22;3779;49.216;8.650;2022-12-10T18:40:51;17.50;29.30
7476;DHT22;3779;49.216;8.650;2022-12-10T18:43:37;17.50;29.20
7476;DHT22;3779;49.216;8.650;2022-12-10T18:46:25;17.50;29.30
7476;DHT22;3779;49.216;8.650;2022-12-10T18:49:12;17.50;29.60
7476;DHT22;3779;49.216;8.650;2022-12-10T18:51:58;17.50;29.40
7476;DHT22;3779;49.216;8.650;2022-12-10T18:54:44;17.50;29.10
7476;DHT22;3779;49.216;8.650;2022-12-10T18:57:30;17.50;29.40
7476;DHT22;3779;49.216;8.650;2022-12-10T19:00:20;17.50;29.30
7476;DHT22;3779;49.216;8.650;2022-12-10T19:03:07;17.50;29.00
7476;DHT22;3779;49.216;8.650;2022-12-10T19:05:53;17.50;28.80
7476;DHT22;3779;49.216;8.650;2022-12-10T19:08:39;17.40;28.80
7476;DHT22;3779;49.216;8.650;2022-12-10T19:11:25;17.40;28.60
7476;DHT22;3779;49.216;8.650;2022-12-10T19:14:12;17.40;28.90
7476;DHT22;3779;49.216;8.650;2022-12-10T19:16:58;17.40;28.80
7476;DHT22;3779;49.216;8.650;2022-12-10T19:19:46;17.40;29.00
7476;DHT22;3779;49.216;8.650;2022-12-10T19:22:32;17.40;28.60
7476;DHT22;3779;49.216;8.650;2022-12-10T19:25:18;17.40;29.00
7476;DHT22;3779;49.216;8.650;2022-12-10T19:28:05;17.40;28.80
7476;DHT22;3779;49.216;8.650;2022-12-10T19:30:51;17.40;29.00
7476;DHT22;3779;49.216;8.650;2022-12-10T19:33:37;17.40;28.60
7476;DHT22;3779;49.216;8.650;2022-12-10T19:36:25;17.40;28.60
7476;DHT22;3779;49.216;8.650;2022-12-10T19:39:29;17.40;29.00
7476;DHT22;3779;49.216;8.650;2022-12-10T19:42:15;17.40;29.40
7476;DHT22;3779;49.216;8.650;2022-12-10T19:45:01;17.40;28.70
7476;DHT22;3779;49.216;8.650;2022-12-10T19:47:47;17.40;28.80
7476;DHT22;3779;49.216;8.650;2022-12-10T19:50:35;17.40;28.90
7476;DHT22;3779;49.216;8.650;2022-12-10T19:53:21;17.40;28.90
7476;DHT22;3779;49.216;8.650;2022-12-10T19:56:21;17.40;28.40
7476;DHT22;3779;49.216;8.650;2022-12-10T19:59:17;17.40;28.40
7476;DHT22;3779;49.216;8.650;2022-12-10T20:02:04;17.30;27.90
7476;DHT22;3779;49.216;8.650;2022-12-10T20:04:50;17.30;28.20
7476;DHT22;3779;49.216;8.650;2022-12-10T20:07:36;17.30;28.70